createdAt,value
2017-11-15T00:00:05.473Z,101225
2017-11-15T00:01:05.059Z,101221
2017-11-15T00:02:05.708Z,101220
2017-11-15T00:03:05.593Z,101218
2017-11-15T00:04:05.256Z,101219
2017-11-15T00:05:05.855Z,101217
2017-11-15T00:06:05.355Z,101219
2017-11-15T00:07:05.977Z,101211
2017-11-15T00:08:05.922Z,101215
2017-11-15T00:09:05.446Z,101215
2017-11-15T00:10:06.044Z,101212
2017-11-15T00:11:06.167Z,101214
2017-11-15T00:12:06.074Z,101214
2017-11-15T00:13:05.689Z,101210
2017-11-15T00:14:05.729Z,101214
2017-11-15T00:15:06.181Z,101214
2017-11-15T00:16:05.750Z,101212
2017-11-15T00:17:05.815Z,101217
2017-11-15T00:18:05.906Z,101217
2017-11-15T00:19:06.356Z,101210
2017-11-15T00:20:06.529Z,101212
2017-11-15T00:21:05.911Z,101215
2017-11-15T00:22:05.976Z,101217
2017-11-15T00:24:06.155Z,101217
2017-11-15T00:25:06.649Z,101221
2017-11-15T00:26:06.204Z,101218
2017-11-15T00:27:06.693Z,101220
2017-11-15T00:28:06.339Z,101215
2017-11-15T00:29:06.245Z,101221
2017-11-15T00:30:06.826Z,101223
2017-11-15T00:31:06.894Z,101226
2017-11-15T00:32:07.025Z,101221
2017-11-15T00:33:06.514Z,101225
2017-11-15T00:34:07.098Z,101224
2017-11-15T00:35:07.079Z,101221
2017-11-15T00:36:07.176Z,101228
2017-11-15T00:37:07.126Z,101230
2017-11-15T00:38:07.173Z,101220
2017-11-15T00:39:06.686Z,101232
2017-11-15T00:40:07.435Z,101233
2017-11-15T00:41:06.881Z,101231
2017-11-15T00:42:07.531Z,101229
2017-11-15T00:43:07.588Z,101225
2017-11-15T00:44:07.561Z,101232
2017-11-15T00:45:07.711Z,101230
2017-11-15T00:46:07.834Z,101228
2017-11-15T00:47:07.924Z,101226
2017-11-15T00:48:07.328Z,101233
2017-11-15T00:49:07.983Z,101232
2017-11-15T00:50:07.518Z,101232
2017-11-15T00:51:08.104Z,101234
2017-11-15T00:52:07.950Z,101235
2017-11-15T00:53:07.993Z,101232
2017-11-15T00:54:08.093Z,101230
2017-11-15T00:55:08.075Z,101226
2017-11-15T00:56:07.749Z,101224
2017-11-15T00:57:07.808Z,101226
2017-11-15T00:58:07.786Z,101226
2017-11-15T00:59:07.771Z,101230
2017-11-15T01:00:07.875Z,101225
2017-11-15T01:01:07.959Z,101223
2017-11-15T01:02:08.600Z,101229
2017-11-15T01:03:08.517Z,101221
2017-11-15T01:04:08.009Z,101227
2017-11-15T01:05:08.688Z,101228
2017-11-15T01:06:08.230Z,101226
2017-11-15T01:07:08.265Z,101224
2017-11-15T01:08:08.934Z,101228
2017-11-15T01:09:08.271Z,101231
2017-11-15T01:10:08.277Z,101226
2017-11-15T01:11:08.960Z,101228
2017-11-15T01:12:08.517Z,101228
2017-11-15T01:13:08.540Z,101233
2017-11-15T01:14:08.696Z,101232
2017-11-15T01:15:08.846Z,101230
2017-11-15T01:16:09.213Z,101236
2017-11-15T01:17:09.247Z,101235
2017-11-15T01:18:09.551Z,101239
2017-11-15T01:19:08.790Z,101235
2017-11-15T01:20:09.677Z,101227
2017-11-15T01:21:08.884Z,101232
2017-11-15T01:22:09.909Z,101234
2017-11-15T01:23:09.238Z,101231
2017-11-15T01:24:09.619Z,101232
2017-11-15T01:25:09.581Z,101229
2017-11-15T01:26:09.647Z,101226
2017-11-15T01:27:09.689Z,101226
2017-11-15T01:28:09.815Z,101220
2017-11-15T01:29:09.879Z,101220
2017-11-15T01:30:09.805Z,101221
2017-11-15T01:31:09.992Z,101221
2017-11-15T01:32:09.474Z,101226
2017-11-15T01:33:09.349Z,101224
2017-11-15T01:34:12.144Z,101232
2017-11-15T01:35:09.573Z,101233
2017-11-15T01:36:10.052Z,101232
2017-11-15T01:37:09.589Z,101232
2017-11-15T01:38:09.968Z,101237
2017-11-15T01:39:09.766Z,101237
2017-11-15T01:40:10.391Z,101238
2017-11-15T01:41:09.898Z,101234
2017-11-15T01:42:09.975Z,101235
2017-11-15T01:43:10.006Z,101238
2017-11-15T01:44:10.568Z,101233
2017-11-15T01:45:10.167Z,101234
2017-11-15T01:46:10.621Z,101225
2017-11-15T01:47:10.669Z,101233
2017-11-15T01:48:10.205Z,101234
2017-11-15T01:49:10.918Z,101233
2017-11-15T01:50:10.264Z,101237
2017-11-15T01:51:10.884Z,101234
2017-11-15T01:52:11.053Z,101228
2017-11-15T01:53:10.429Z,101234
2017-11-15T01:54:11.055Z,101235
2017-11-15T01:55:11.216Z,101226
2017-11-15T01:56:10.586Z,101233
2017-11-15T01:57:10.658Z,101232
2017-11-15T01:58:10.679Z,101235
2017-11-15T01:59:10.674Z,101233
2017-11-15T02:00:11.300Z,101233
2017-11-15T02:01:11.398Z,101236
2017-11-15T02:02:11.848Z,101229
2017-11-15T02:03:10.802Z,101233
2017-11-15T02:04:11.504Z,101226
2017-11-15T02:05:11.515Z,101229
2017-11-15T02:06:11.588Z,101230
2017-11-15T02:07:11.603Z,101227
2017-11-15T02:08:10.979Z,101227
2017-11-15T02:09:14.160Z,101225
2017-11-15T02:10:11.609Z,101228
2017-11-15T02:11:11.872Z,101220
2017-11-15T02:12:11.267Z,101226
2017-11-15T02:13:11.941Z,101227
2017-11-15T02:14:11.883Z,101228
2017-11-15T02:15:12.061Z,101228
2017-11-15T02:16:12.123Z,101228
2017-11-15T02:17:12.120Z,101228
2017-11-15T02:18:12.183Z,101228
2017-11-15T02:19:11.771Z,101230
2017-11-15T02:20:12.295Z,101229
2017-11-15T02:21:12.376Z,101229
2017-11-15T02:22:12.376Z,101225
2017-11-15T02:23:12.058Z,101226
2017-11-15T02:24:12.107Z,101227
2017-11-15T02:25:12.139Z,101230
2017-11-15T02:26:12.234Z,101230
2017-11-15T02:27:12.315Z,101224
2017-11-15T02:28:12.433Z,101230
2017-11-15T02:29:13.088Z,101226
2017-11-15T02:30:13.104Z,101224
2017-11-15T02:31:12.522Z,101224
2017-11-15T02:32:12.619Z,101224
2017-11-15T02:33:12.645Z,101226
2017-11-15T02:34:13.221Z,101222
2017-11-15T02:35:13.286Z,101223
2017-11-15T02:36:13.319Z,101220
2017-11-15T02:37:12.828Z,101220
2017-11-15T02:38:13.460Z,101217
2017-11-15T02:39:13.384Z,101216
2017-11-15T02:40:13.437Z,101216
2017-11-15T02:41:13.541Z,101216
2017-11-15T02:42:12.938Z,101216
2017-11-15T02:43:12.947Z,101208
2017-11-15T02:44:13.613Z,101218
2017-11-15T02:45:14.141Z,101212
2017-11-15T02:46:13.811Z,101214
2017-11-15T02:47:13.848Z,101211
2017-11-15T02:48:13.395Z,101208
2017-11-15T02:49:13.948Z,101210
2017-11-15T02:50:13.890Z,101212
2017-11-15T02:51:13.910Z,101206
2017-11-15T02:52:13.623Z,101210
2017-11-15T02:53:13.628Z,101206
2017-11-15T02:54:14.156Z,101203
2017-11-15T02:55:14.135Z,101205
2017-11-15T02:56:13.712Z,101203
2017-11-15T02:57:14.265Z,101206
2017-11-15T02:58:14.350Z,101204
2017-11-15T02:59:13.813Z,101204
2017-11-15T03:00:14.547Z,101202
2017-11-15T03:01:14.644Z,101201
2017-11-15T03:02:14.640Z,101196
2017-11-15T03:03:14.215Z,101205
2017-11-15T03:04:14.803Z,101201
2017-11-15T03:05:14.424Z,101203
2017-11-15T03:06:14.410Z,101204
2017-11-15T03:07:14.419Z,101202
2017-11-15T03:08:14.942Z,101204
2017-11-15T03:09:14.408Z,101203
2017-11-15T03:10:14.563Z,101205
2017-11-15T03:11:15.004Z,101202
2017-11-15T03:12:14.594Z,101202
2017-11-15T03:13:15.085Z,101202
2017-11-15T03:14:15.282Z,101204
2017-11-15T03:15:15.285Z,101203
2017-11-15T03:16:15.388Z,101209
2017-11-15T03:17:15.017Z,101200
2017-11-15T03:18:15.470Z,101204
2017-11-15T03:19:15.496Z,101204
2017-11-15T03:20:15.673Z,101206
2017-11-15T03:21:15.216Z,101204
2017-11-15T03:22:15.863Z,101208
2017-11-15T03:23:15.726Z,101204
2017-11-15T03:24:15.319Z,101201
2017-11-15T03:25:15.880Z,101197
2017-11-15T03:26:15.369Z,101192
2017-11-15T03:27:15.351Z,101199
2017-11-15T03:28:16.045Z,101199
2017-11-15T03:29:15.457Z,101198
2017-11-15T03:30:15.959Z,101199
2017-11-15T03:31:15.451Z,101198
2017-11-15T03:32:16.127Z,101199
2017-11-15T03:33:15.616Z,101200
2017-11-15T03:34:16.171Z,101193
2017-11-15T03:35:16.225Z,101197
2017-11-15T03:36:15.649Z,101198
2017-11-15T03:37:15.770Z,101199
2017-11-15T03:38:15.851Z,101197
2017-11-15T03:39:15.898Z,101200
2017-11-15T03:40:16.383Z,101201
2017-11-15T03:41:15.981Z,101203
2017-11-15T03:42:16.066Z,101205
2017-11-15T03:43:16.066Z,101206
2017-11-15T03:44:16.071Z,101205
2017-11-15T03:45:16.650Z,101204
2017-11-15T03:46:16.849Z,101203
2017-11-15T03:47:16.879Z,101202
2017-11-15T03:48:16.889Z,101204
2017-11-15T03:49:16.925Z,101205
2017-11-15T03:50:16.519Z,101204
2017-11-15T03:51:16.602Z,101203
2017-11-15T03:52:17.163Z,101200
2017-11-15T03:53:16.511Z,101201
2017-11-15T03:54:16.642Z,101199
2017-11-15T03:55:16.708Z,101197
2017-11-15T03:56:16.735Z,101198
2017-11-15T03:57:16.826Z,101196
2017-11-15T03:58:17.400Z,101197
2017-11-15T03:59:17.382Z,101201
2017-11-15T04:00:16.952Z,101202
2017-11-15T04:01:17.267Z,101202
2017-11-15T04:02:17.480Z,101199
2017-11-15T04:03:17.026Z,101202
2017-11-15T04:04:17.587Z,101196
2017-11-15T04:05:17.773Z,101205
2017-11-15T04:06:17.873Z,101202
2017-11-15T04:07:17.241Z,101208
2017-11-15T04:08:17.404Z,101206
2017-11-15T04:09:17.545Z,101208
2017-11-15T04:10:17.966Z,101212
2017-11-15T04:11:18.013Z,101212
2017-11-15T04:12:17.555Z,101210
2017-11-15T04:13:17.744Z,101216
2017-11-15T04:14:18.281Z,101216
2017-11-15T04:15:18.363Z,101215
2017-11-15T04:16:17.876Z,101219
2017-11-15T04:17:18.422Z,101218
2017-11-15T04:18:18.562Z,101216
2017-11-15T04:19:18.650Z,101215
2017-11-15T04:20:18.652Z,101216
2017-11-15T04:21:18.772Z,101218
2017-11-15T04:22:18.182Z,101220
2017-11-15T04:23:18.804Z,101216
2017-11-15T04:24:18.484Z,101219
2017-11-15T04:25:18.404Z,101221
2017-11-15T04:26:19.052Z,101220
2017-11-15T04:27:18.486Z,101225
2017-11-15T04:28:19.109Z,101225
2017-11-15T04:29:18.522Z,101221
2017-11-15T04:30:18.674Z,101219
2017-11-15T04:31:18.770Z,101225
2017-11-15T04:32:19.393Z,101221
2017-11-15T04:33:19.471Z,101219
2017-11-15T04:34:20.258Z,101222
2017-11-15T04:35:19.409Z,101226
2017-11-15T04:36:19.027Z,101224
2017-11-15T04:37:19.080Z,101221
2017-11-15T04:38:19.137Z,101221
2017-11-15T04:39:19.062Z,101225
2017-11-15T04:40:19.060Z,101221
2017-11-15T04:41:19.632Z,101222
2017-11-15T04:42:19.192Z,101218
2017-11-15T04:43:19.328Z,101220
2017-11-15T04:44:19.430Z,101213
2017-11-15T04:45:19.425Z,101216
2017-11-15T04:46:19.891Z,101219
2017-11-15T04:47:19.348Z,101222
2017-11-15T04:48:19.974Z,101225
2017-11-15T04:49:19.977Z,101222
2017-11-15T04:50:19.769Z,101219
2017-11-15T04:51:20.131Z,101225
2017-11-15T04:52:20.174Z,101231
2017-11-15T04:53:19.749Z,101233
2017-11-15T04:54:20.383Z,101232
2017-11-15T04:55:19.892Z,101230
2017-11-15T04:56:20.490Z,101229
2017-11-15T04:57:20.806Z,101230
2017-11-15T04:58:19.881Z,101230
2017-11-15T04:59:20.457Z,101228
2017-11-15T05:00:20.047Z,101225
2017-11-15T05:01:20.156Z,101235
2017-11-15T05:02:20.702Z,101231
2017-11-15T05:03:20.203Z,101231
2017-11-15T05:04:20.306Z,101235
2017-11-15T05:05:20.861Z,101229
2017-11-15T05:06:20.911Z,101233
2017-11-15T05:07:21.045Z,101232
2017-11-15T05:08:20.953Z,101233
2017-11-15T05:09:20.955Z,101232
2017-11-15T05:10:21.125Z,101237
2017-11-15T05:11:21.132Z,101235
2017-11-15T05:12:21.217Z,101232
2017-11-15T05:13:20.771Z,101235
2017-11-15T05:14:21.243Z,101232
2017-11-15T05:15:21.346Z,101233
2017-11-15T05:16:21.375Z,101235
2017-11-15T05:17:20.773Z,101235
2017-11-15T05:18:21.489Z,101242
2017-11-15T05:19:21.048Z,101238
2017-11-15T05:20:20.999Z,101242
2017-11-15T05:21:21.535Z,101234
2017-11-15T05:22:21.715Z,101242
2017-11-15T05:23:21.657Z,101245
2017-11-15T05:24:21.284Z,101243
2017-11-15T05:25:21.466Z,101247
2017-11-15T05:26:21.304Z,101242
2017-11-15T05:27:21.775Z,101241
2017-11-15T05:28:21.772Z,101234
2017-11-15T05:29:21.145Z,101237
2017-11-15T05:30:21.434Z,101240
2017-11-15T05:31:21.512Z,101237
2017-11-15T05:32:21.581Z,101240
2017-11-15T05:33:21.568Z,101241
2017-11-15T05:34:22.133Z,101236
2017-11-15T05:35:21.510Z,101240
2017-11-15T05:36:21.736Z,101239
2017-11-15T05:37:21.907Z,101235
2017-11-15T05:38:23.575Z,101241
2017-11-15T05:39:21.834Z,101241
2017-11-15T05:40:22.325Z,101241
2017-11-15T05:41:21.848Z,101241
2017-11-15T05:42:21.896Z,101238
2017-11-15T05:43:22.147Z,101237
2017-11-15T05:44:21.945Z,101240
2017-11-15T05:45:22.624Z,101239
2017-11-15T05:46:22.087Z,101239
2017-11-15T05:47:22.648Z,101238
2017-11-15T05:48:22.232Z,101236
2017-11-15T05:49:22.206Z,101242
2017-11-15T05:50:22.680Z,101247
2017-11-15T05:51:22.683Z,101240
2017-11-15T05:52:22.875Z,101246
2017-11-15T05:53:22.324Z,101240
2017-11-15T05:54:22.311Z,101250
2017-11-15T05:55:22.503Z,101252
2017-11-15T05:56:22.412Z,101251
2017-11-15T05:57:22.531Z,101250
2017-11-15T05:58:22.573Z,101254
2017-11-15T05:59:23.114Z,101251
2017-11-15T06:00:22.625Z,101250
2017-11-15T06:01:23.331Z,101252
2017-11-15T06:02:22.614Z,101256
2017-11-15T06:03:23.213Z,101254
2017-11-15T06:04:22.855Z,101256
2017-11-15T06:05:22.781Z,101256
2017-11-15T06:06:22.940Z,101253
2017-11-15T06:07:23.504Z,101254
2017-11-15T06:08:22.995Z,101255
2017-11-15T06:09:23.164Z,101261
2017-11-15T06:10:23.600Z,101257
2017-11-15T06:11:23.807Z,101257
2017-11-15T06:12:23.668Z,101253
2017-11-15T06:13:23.306Z,101251
2017-11-15T06:14:23.297Z,101256
2017-11-15T06:15:24.410Z,101252
2017-11-15T06:16:23.378Z,101253
2017-11-15T06:17:23.574Z,101261
2017-11-15T06:18:24.308Z,101258
2017-11-15T06:19:24.133Z,101261
2017-11-15T06:20:25.269Z,101261
2017-11-15T06:21:23.883Z,101261
2017-11-15T06:22:24.288Z,101254
2017-11-15T06:23:24.014Z,101250
2017-11-15T06:24:24.491Z,101255
2017-11-15T06:25:23.854Z,101256
2017-11-15T06:26:23.975Z,101250
2017-11-15T06:27:24.646Z,101250
2017-11-15T06:28:24.137Z,101257
2017-11-15T06:29:24.135Z,101260
2017-11-15T06:30:24.236Z,101249
2017-11-15T06:31:24.381Z,101247
2017-11-15T06:32:24.944Z,101255
2017-11-15T06:33:24.414Z,101252
2017-11-15T06:34:24.892Z,101257
2017-11-15T06:35:25.088Z,101259
2017-11-15T06:36:24.514Z,101256
2017-11-15T06:37:25.317Z,101258
2017-11-15T06:38:24.478Z,101256
2017-11-15T06:39:27.466Z,101260
2017-11-15T06:40:25.054Z,101261
2017-11-15T06:41:24.675Z,101259
2017-11-15T06:42:24.548Z,101259
2017-11-15T06:43:25.247Z,101264
2017-11-15T06:44:25.391Z,101269
2017-11-15T06:45:24.888Z,101267
2017-11-15T06:46:24.934Z,101271
2017-11-15T06:47:24.822Z,101270
2017-11-15T06:48:25.379Z,101268
2017-11-15T06:49:25.591Z,101271
2017-11-15T06:50:25.721Z,101273
2017-11-15T06:51:25.160Z,101273
2017-11-15T06:52:25.150Z,101273
2017-11-15T06:53:24.999Z,101273
2017-11-15T06:54:25.123Z,101279
2017-11-15T06:55:25.720Z,101276
2017-11-15T06:56:25.763Z,101269
2017-11-15T06:57:25.269Z,101274
2017-11-15T06:58:25.394Z,101274
2017-11-15T06:59:25.961Z,101274
2017-11-15T07:00:25.403Z,101275
2017-11-15T07:01:25.426Z,101275
2017-11-15T07:02:25.958Z,101270
2017-11-15T07:03:25.623Z,101278
2017-11-15T07:04:25.749Z,101271
2017-11-15T07:05:25.630Z,101273
2017-11-15T07:06:25.787Z,101284
2017-11-15T07:07:27.485Z,101288
2017-11-15T07:08:25.846Z,101279
2017-11-15T07:09:26.007Z,101277
2017-11-15T07:10:25.929Z,101286
2017-11-15T07:11:25.998Z,101281
2017-11-15T07:12:26.117Z,101278
2017-11-15T07:13:26.913Z,101278
2017-11-15T07:14:26.858Z,101276
2017-11-15T07:15:26.795Z,101282
2017-11-15T07:16:27.454Z,101282
2017-11-15T07:17:26.343Z,101286
2017-11-15T07:18:26.803Z,101281
2017-11-15T07:19:26.390Z,101285
2017-11-15T07:20:26.439Z,101282
2017-11-15T07:21:26.662Z,101289
2017-11-15T07:22:26.674Z,101290
2017-11-15T07:23:26.517Z,101288
2017-11-15T07:24:27.183Z,101289
2017-11-15T07:25:27.233Z,101287
2017-11-15T07:26:33.287Z,101289
2017-11-15T07:27:27.748Z,101291
2017-11-15T07:28:27.921Z,101290
2017-11-15T07:29:26.965Z,101288
2017-11-15T07:30:27.098Z,101289
2017-11-15T07:31:27.911Z,101278
2017-11-15T07:32:27.583Z,101287
2017-11-15T07:33:27.795Z,101289
2017-11-15T07:34:27.700Z,101295
2017-11-15T07:35:29.032Z,101290
2017-11-15T07:36:27.920Z,101299
2017-11-15T07:37:27.843Z,101287
2017-11-15T07:38:27.417Z,101288
2017-11-15T07:39:28.045Z,101299
2017-11-15T07:40:27.375Z,101301
2017-11-15T07:41:28.650Z,101296
2017-11-15T07:42:27.714Z,101296
2017-11-15T07:43:27.591Z,101296
2017-11-15T07:44:28.228Z,101297
2017-11-15T07:45:28.401Z,101293
2017-11-15T07:46:28.315Z,101300
2017-11-15T07:47:27.857Z,101295
2017-11-15T07:48:27.751Z,101304
2017-11-15T07:49:28.363Z,101306
2017-11-15T07:50:27.989Z,101298
2017-11-15T07:51:28.963Z,101300
2017-11-15T07:52:28.601Z,101299
2017-11-15T07:53:28.079Z,101301
2017-11-15T07:54:28.600Z,101301
2017-11-15T07:55:28.097Z,101299
2017-11-15T07:56:28.656Z,101300
2017-11-15T07:57:28.688Z,101296
2017-11-15T07:58:28.860Z,101296
2017-11-15T07:59:28.853Z,101290
2017-11-15T08:00:28.324Z,101289
2017-11-15T08:01:28.946Z,101297
2017-11-15T08:02:29.092Z,101297
2017-11-15T08:03:28.588Z,101303
2017-11-15T08:04:29.135Z,101302
2017-11-15T08:05:29.116Z,101298
2017-11-15T08:06:29.144Z,101298
2017-11-15T08:07:29.411Z,101294
2017-11-15T08:08:28.782Z,101294
2017-11-15T08:09:28.868Z,101297
2017-11-15T08:10:29.337Z,101296
2017-11-15T08:11:28.805Z,101299
2017-11-15T08:12:28.970Z,101304
2017-11-15T08:13:29.510Z,101310
2017-11-15T08:14:29.491Z,101311
2017-11-15T08:15:29.047Z,101304
2017-11-15T08:16:29.804Z,101307
2017-11-15T08:17:29.215Z,101308
2017-11-15T08:18:29.219Z,101317
2017-11-15T08:19:29.988Z,101314
2017-11-15T08:20:29.389Z,101315
2017-11-15T08:21:29.879Z,101316
2017-11-15T08:22:29.938Z,101319
2017-11-15T08:23:29.908Z,101316
2017-11-15T08:24:29.548Z,101322
2017-11-15T08:25:30.151Z,101324
2017-11-15T08:26:30.393Z,101322
2017-11-15T08:27:30.182Z,101318
2017-11-15T08:28:29.716Z,101322
2017-11-15T08:29:30.520Z,101325
2017-11-15T08:30:31.698Z,101319
2017-11-15T08:31:30.150Z,101320
2017-11-15T08:32:30.566Z,101325
2017-11-15T08:33:29.994Z,101326
2017-11-15T08:34:30.058Z,101325
2017-11-15T08:35:30.431Z,101325
2017-11-15T08:36:30.665Z,101327
2017-11-15T08:37:30.756Z,101324
2017-11-15T08:38:30.808Z,101324
2017-11-15T08:39:30.328Z,101330
2017-11-15T08:40:30.352Z,101329
2017-11-15T08:41:30.849Z,101329
2017-11-15T08:42:31.376Z,101326
2017-11-15T08:43:30.603Z,101328
2017-11-15T08:44:31.076Z,101323
2017-11-15T08:45:30.902Z,101327
2017-11-15T08:46:30.709Z,101322
2017-11-15T08:47:30.740Z,101326
2017-11-15T08:48:31.518Z,101328
2017-11-15T08:49:31.172Z,101318
2017-11-15T08:50:31.549Z,101321
2017-11-15T08:51:32.274Z,101323
2017-11-15T08:52:31.595Z,101318
2017-11-15T08:53:31.140Z,101319
2017-11-15T08:54:31.755Z,101325
2017-11-15T08:55:31.193Z,101329
2017-11-15T08:56:31.855Z,101319
2017-11-15T08:57:31.162Z,101326
2017-11-15T08:58:31.781Z,101318
2017-11-15T08:59:31.938Z,101328
2017-11-15T09:00:31.466Z,101319
2017-11-15T09:01:32.058Z,101325
2017-11-15T09:02:32.303Z,101328
2017-11-15T09:03:31.519Z,101323
2017-11-15T09:04:31.625Z,101322
2017-11-15T09:05:32.142Z,101323
2017-11-15T09:06:32.423Z,101326
2017-11-15T09:07:32.319Z,101320
2017-11-15T09:08:31.721Z,101322
2017-11-15T09:09:32.949Z,101323
2017-11-15T09:10:31.905Z,101321
2017-11-15T09:11:32.486Z,101322
2017-11-15T09:12:32.559Z,101323
2017-11-15T09:13:32.069Z,101323
2017-11-15T09:14:31.931Z,101323
2017-11-15T09:15:32.596Z,101324
2017-11-15T09:16:32.057Z,101318
2017-11-15T09:17:32.777Z,101321
2017-11-15T09:18:32.044Z,101322
2017-11-15T09:19:32.334Z,101319
2017-11-15T09:20:32.858Z,101325
2017-11-15T09:21:32.890Z,101324
2017-11-15T09:22:32.783Z,101335
2017-11-15T09:23:32.980Z,101332
2017-11-15T09:24:32.348Z,101335
2017-11-15T09:25:33.016Z,101334
2017-11-15T09:26:33.078Z,101334
2017-11-15T09:27:32.470Z,101335
2017-11-15T09:28:32.973Z,101332
2017-11-15T09:29:33.224Z,101344
2017-11-15T09:30:33.229Z,101340
2017-11-15T09:31:33.061Z,101341
2017-11-15T09:32:33.326Z,101338
2017-11-15T09:33:33.212Z,101338
2017-11-15T09:34:33.872Z,101334
2017-11-15T09:35:33.448Z,101336
2017-11-15T09:36:33.155Z,101335
2017-11-15T09:37:33.525Z,101343
2017-11-15T09:38:33.833Z,101343
2017-11-15T09:39:34.096Z,101343
2017-11-15T09:40:32.945Z,101346
2017-11-15T09:41:34.577Z,101345
2017-11-15T09:42:34.343Z,101350
2017-11-15T09:43:33.093Z,101348
2017-11-15T09:44:33.334Z,101348
2017-11-15T09:45:33.073Z,101345
2017-11-15T09:46:33.775Z,101355
2017-11-15T09:47:33.427Z,101347
2017-11-15T09:48:33.909Z,101345
2017-11-15T09:49:33.993Z,101342
2017-11-15T09:50:34.137Z,101352
2017-11-15T09:51:34.109Z,101346
2017-11-15T09:52:33.718Z,101349
2017-11-15T09:53:34.242Z,101353
2017-11-15T09:54:35.174Z,101356
2017-11-15T09:55:34.296Z,101347
2017-11-15T09:56:34.684Z,101360
2017-11-15T09:57:34.300Z,101358
2017-11-15T09:58:34.360Z,101353
2017-11-15T09:59:34.282Z,101356
2017-11-15T10:00:34.673Z,101348
2017-11-15T10:01:34.214Z,101357
2017-11-15T10:02:34.331Z,101354
2017-11-15T10:03:35.506Z,101352
2017-11-15T10:04:36.353Z,101343
2017-11-15T10:05:35.360Z,101348
2017-11-15T10:06:35.531Z,101350
2017-11-15T10:07:35.253Z,101350
2017-11-15T10:08:35.135Z,101353
2017-11-15T10:09:35.400Z,101349
2017-11-15T10:10:35.548Z,101345
2017-11-15T10:11:34.611Z,101351
2017-11-15T10:12:35.812Z,101347
2017-11-15T10:13:37.006Z,101352
2017-11-15T10:14:35.511Z,101351
2017-11-15T10:15:37.144Z,101350
2017-11-15T10:16:37.353Z,101348
2017-11-15T10:17:34.943Z,101349
2017-11-15T10:18:37.873Z,101360
2017-11-15T10:19:35.653Z,101350
2017-11-15T10:20:35.658Z,101350
2017-11-15T10:21:35.158Z,101350
2017-11-15T10:22:35.202Z,101358
2017-11-15T10:23:35.651Z,101348
2017-11-15T10:24:36.169Z,101355
2017-11-15T10:25:35.428Z,101354
2017-11-15T10:26:36.053Z,101351
2017-11-15T10:27:35.962Z,101359
2017-11-15T10:28:36.168Z,101351
2017-11-15T10:29:36.111Z,101349
2017-11-15T10:30:35.638Z,101350
2017-11-15T10:31:36.503Z,101342
2017-11-15T10:32:35.649Z,101348
2017-11-15T10:33:36.291Z,101342
2017-11-15T10:34:36.406Z,101348
2017-11-15T10:35:35.797Z,101341
2017-11-15T10:36:36.619Z,101339
2017-11-15T10:37:36.513Z,101333
2017-11-15T10:38:36.678Z,101339
2017-11-15T10:39:36.552Z,101342
2017-11-15T10:40:36.718Z,101343
2017-11-15T10:41:37.058Z,101337
2017-11-15T10:42:36.415Z,101336
2017-11-15T10:43:36.535Z,101339
2017-11-15T10:44:36.942Z,101337
2017-11-15T10:45:36.566Z,101332
2017-11-15T10:46:36.457Z,101333
2017-11-15T10:47:37.088Z,101334
2017-11-15T10:48:37.279Z,101329
2017-11-15T10:49:37.075Z,101325
2017-11-15T10:50:37.171Z,101325
2017-11-15T10:51:37.001Z,101328
2017-11-15T10:52:37.025Z,101331
2017-11-15T10:53:36.784Z,101332
2017-11-15T10:54:36.917Z,101326
2017-11-15T10:55:37.529Z,101326
2017-11-15T10:56:36.958Z,101324
2017-11-15T10:57:36.967Z,101323
2017-11-15T10:58:37.283Z,101325
2017-11-15T10:59:37.919Z,101324
2017-11-15T11:00:38.041Z,101320
2017-11-15T11:01:38.033Z,101319
2017-11-15T11:02:37.480Z,101311
2017-11-15T11:03:37.976Z,101317
2017-11-15T11:04:37.927Z,101320
2017-11-15T11:05:37.951Z,101317
2017-11-15T11:06:38.234Z,101314
2017-11-15T11:07:38.139Z,101316
2017-11-15T11:08:38.356Z,101308
2017-11-15T11:09:38.356Z,101316
2017-11-15T11:10:38.092Z,101314
2017-11-15T11:11:37.997Z,101315
2017-11-15T11:12:37.843Z,101315
2017-11-15T11:13:38.460Z,101314
2017-11-15T11:14:38.574Z,101310
2017-11-15T11:15:38.564Z,101313
2017-11-15T11:16:38.602Z,101311
2017-11-15T11:17:38.028Z,101307
2017-11-15T11:18:38.022Z,101309
2017-11-15T11:19:38.945Z,101311
2017-11-15T11:20:38.925Z,101308
2017-11-15T11:21:38.330Z,101313
2017-11-15T11:22:38.810Z,101313
2017-11-15T11:23:39.039Z,101317
2017-11-15T11:24:39.018Z,101315
2017-11-15T11:25:38.590Z,101314
2017-11-15T11:26:38.571Z,101315
2017-11-15T11:27:39.144Z,101317
2017-11-15T11:28:39.489Z,101313
2017-11-15T11:29:38.787Z,101317
2017-11-15T11:30:39.435Z,101315
2017-11-15T11:31:39.784Z,101319
2017-11-15T11:32:39.470Z,101313
2017-11-15T11:33:39.435Z,101316
2017-11-15T11:34:40.008Z,101316
2017-11-15T11:35:40.188Z,101316
2017-11-15T11:36:38.939Z,101317
2017-11-15T11:37:39.138Z,101320
2017-11-15T11:38:39.580Z,101320
2017-11-15T11:39:39.910Z,101319
2017-11-15T11:40:39.000Z,101315
2017-11-15T11:41:39.239Z,101320
2017-11-15T11:42:40.014Z,101321
2017-11-15T11:43:39.912Z,101318
2017-11-15T11:44:39.316Z,101319
2017-11-15T11:45:40.134Z,101314
2017-11-15T11:46:40.121Z,101317
2017-11-15T11:47:39.418Z,101316
2017-11-15T11:48:39.475Z,101320
2017-11-15T11:49:40.235Z,101318
2017-11-15T11:50:39.472Z,101313
2017-11-15T11:51:40.035Z,101318
2017-11-15T11:52:40.284Z,101317
2017-11-15T11:53:40.215Z,101309
2017-11-15T11:54:39.855Z,101312
2017-11-15T11:55:41.067Z,101317
2017-11-15T11:56:40.316Z,101314
2017-11-15T11:57:39.930Z,101315
2017-11-15T11:58:39.983Z,101316
2017-11-15T11:59:39.939Z,101302
2017-11-15T12:00:40.013Z,101310
2017-11-15T12:01:41.295Z,101311
2017-11-15T12:02:40.686Z,101314
2017-11-15T12:03:40.127Z,101311
2017-11-15T12:04:40.197Z,101313
2017-11-15T12:05:42.652Z,101315
2017-11-15T12:06:40.419Z,101316
2017-11-15T12:07:41.233Z,101316
2017-11-15T12:08:41.112Z,101316
2017-11-15T12:09:41.163Z,101312
2017-11-15T12:10:41.108Z,101312
2017-11-15T12:11:40.821Z,101313
2017-11-15T12:12:40.537Z,101308
2017-11-15T12:13:41.688Z,101308
2017-11-15T12:14:41.946Z,101313
2017-11-15T12:15:41.052Z,101308
2017-11-15T12:16:40.562Z,101302
2017-11-15T12:17:40.847Z,101307
2017-11-15T12:18:41.410Z,101302
2017-11-15T12:19:40.778Z,101296
2017-11-15T12:20:43.834Z,101302
2017-11-15T12:21:40.844Z,101300
2017-11-15T12:22:41.369Z,101297
2017-11-15T12:23:40.997Z,101293
2017-11-15T12:24:45.027Z,101293
2017-11-15T12:25:42.559Z,101296
2017-11-15T12:26:41.729Z,101295
2017-11-15T12:27:41.136Z,101289
2017-11-15T12:28:42.884Z,101288
2017-11-15T12:29:41.898Z,101283